createdAt,value
2023-03-29T00:02:07.989Z,5.18
2023-03-29T00:04:36.989Z,4.47
2023-03-29T00:07:06.018Z,6.70
2023-03-29T00:09:36.556Z,4.90
2023-03-29T00:12:05.642Z,5.57
2023-03-29T00:14:34.462Z,14.40
2023-03-29T00:17:03.451Z,4.43
2023-03-29T00:19:35.875Z,6.30
2023-03-29T00:22:06.010Z,5.13
2023-03-29T00:24:36.983Z,4.75
2023-03-29T00:27:06.942Z,10.90
2023-03-29T00:29:36.761Z,3.70
2023-03-29T00:32:06.674Z,4.93
2023-03-29T00:34:36.396Z,6.57
2023-03-29T00:37:08.022Z,5.10
2023-03-29T00:39:42.605Z,6.53
2023-03-29T00:42:14.899Z,14.57
2023-03-29T00:45:18.956Z,5.60
2023-03-29T00:50:25.732Z,3.55
2023-03-29T00:53:00.961Z,8.00
2023-03-29T00:55:36.523Z,4.38
2023-03-29T00:58:08.999Z,8.02
2023-03-29T01:00:43.342Z,7.20
2023-03-29T01:03:15.468Z,5.95
2023-03-29T01:05:48.958Z,7.90
2023-03-29T01:10:56.391Z,5.68
2023-03-29T01:13:29.767Z,8.05
2023-03-29T01:16:00.067Z,17.52
2023-03-29T01:18:31.491Z,9.57
2023-03-29T01:21:19.582Z,7.78
2023-03-29T01:24:09.270Z,13.57
2023-03-29T01:27:00.681Z,8.30
2023-03-29T01:29:37.118Z,8.88
2023-03-29T01:32:10.101Z,5.03
2023-03-29T01:34:46.206Z,6.43
2023-03-29T01:37:21.971Z,8.95
2023-03-29T01:39:51.065Z,7.97
2023-03-29T01:42:32.841Z,8.65
2023-03-29T01:45:12.431Z,5.93
2023-03-29T01:47:48.035Z,7.05
2023-03-29T01:50:21.009Z,9.52
2023-03-29T01:52:56.673Z,7.75
2023-03-29T01:55:30.057Z,7.82
2023-03-29T01:58:04.887Z,9.68
2023-03-29T02:00:37.562Z,9.77
2023-03-29T02:03:10.105Z,7.68
2023-03-29T02:05:41.225Z,5.90
2023-03-29T02:08:14.677Z,10.98
2023-03-29T02:13:13.990Z,6.15
2023-03-29T02:15:45.902Z,10.07
2023-03-29T02:18:18.081Z,12.63
2023-03-29T02:20:51.014Z,11.15
2023-03-29T02:23:27.544Z,7.85
2023-03-29T02:25:59.100Z,8.20
2023-03-29T02:28:30.297Z,12.13
2023-03-29T02:31:06.822Z,6.60
2023-03-29T02:33:45.929Z,8.20
2023-03-29T02:36:23.795Z,12.35
2023-03-29T02:38:55.880Z,9.85
2023-03-29T02:41:27.221Z,5.90
2023-03-29T02:43:59.423Z,7.22
2023-03-29T02:46:31.606Z,7.97
2023-03-29T02:49:01.768Z,7.30
2023-03-29T02:51:34.959Z,7.07
2023-03-29T02:54:08.505Z,6.97
2023-03-29T02:56:46.876Z,9.63
2023-03-29T02:59:20.982Z,6.13
2023-03-29T03:01:52.883Z,12.43
2023-03-29T03:04:23.701Z,4.47
2023-03-29T03:06:53.629Z,8.88
2023-03-29T03:09:22.614Z,11.07
2023-03-29T03:11:52.150Z,7.85
2023-03-29T03:14:23.257Z,8.40
2023-03-29T03:16:55.285Z,10.25
2023-03-29T03:19:26.335Z,21.38
2023-03-29T03:21:56.525Z,7.60
2023-03-29T03:24:25.870Z,12.00
2023-03-29T03:26:56.143Z,9.05
2023-03-29T03:29:26.225Z,6.85
2023-03-29T03:32:26.481Z,6.13
2023-03-29T03:35:15.439Z,9.10
2023-03-29T03:37:44.997Z,9.20
2023-03-29T03:40:14.744Z,9.95
2023-03-29T03:42:44.366Z,7.57
2023-03-29T03:45:13.907Z,9.15
2023-03-29T03:47:56.374Z,11.80
2023-03-29T03:50:34.617Z,7.18
2023-03-29T03:53:04.721Z,9.73
2023-03-29T03:55:56.439Z,9.98
2023-03-29T03:58:32.841Z,7.47
2023-03-29T04:01:02.795Z,6.28
2023-03-29T04:03:46.085Z,8.68
2023-03-29T04:06:20.084Z,5.50
2023-03-29T04:09:10.372Z,9.35
2023-03-29T04:14:15.343Z,7.53
2023-03-29T04:16:56.942Z,9.40
2023-03-29T04:19:45.928Z,11.30
2023-03-29T04:22:15.059Z,7.05
2023-03-29T04:24:44.901Z,12.95
2023-03-29T04:27:37.520Z,9.50
2023-03-29T04:30:16.180Z,10.32
2023-03-29T04:33:02.451Z,22.25
2023-03-29T04:35:33.456Z,11.38
2023-03-29T04:38:04.504Z,8.10
2023-03-29T04:40:35.452Z,10.27
2023-03-29T04:43:12.317Z,12.93
2023-03-29T04:45:49.201Z,10.38
2023-03-29T04:48:36.664Z,10.02
2023-03-29T04:51:08.219Z,11.20
2023-03-29T04:53:37.471Z,14.40
2023-03-29T04:56:07.071Z,10.60
2023-03-29T04:59:07.870Z,10.05
2023-03-29T05:01:37.001Z,10.82
2023-03-29T05:04:05.949Z,16.48
2023-03-29T05:06:42.031Z,10.43
2023-03-29T05:09:10.878Z,11.80
2023-03-29T05:11:53.510Z,8.20
2023-03-29T05:14:23.610Z,12.23
2023-03-29T05:16:52.638Z,8.40
2023-03-29T05:19:22.563Z,12.27
2023-03-29T05:21:55.315Z,7.85
2023-03-29T05:24:25.959Z,16.50
2023-03-29T05:26:54.820Z,11.23
2023-03-29T05:29:24.647Z,13.90
2023-03-29T05:32:01.456Z,11.50
2023-03-29T05:34:31.551Z,7.50
2023-03-29T05:37:04.988Z,15.05
2023-03-29T05:39:44.128Z,8.05
2023-03-29T05:42:15.727Z,10.00
2023-03-29T05:44:54.491Z,14.82
2023-03-29T05:47:23.881Z,10.27
2023-03-29T05:49:55.171Z,9.75
2023-03-29T05:52:28.720Z,10.68
2023-03-29T05:54:58.135Z,11.93
2023-03-29T05:57:27.886Z,9.40
2023-03-29T05:59:56.942Z,12.60
2023-03-29T06:02:28.631Z,10.98
2023-03-29T06:04:57.617Z,11.43
2023-03-29T06:07:26.931Z,8.13
2023-03-29T06:10:29.860Z,12.60
2023-03-29T06:13:12.825Z,11.88
2023-03-29T06:15:45.115Z,11.27
2023-03-29T06:18:14.070Z,11.35
2023-03-29T06:20:42.838Z,14.65
2023-03-29T06:23:15.807Z,12.82
2023-03-29T06:25:46.892Z,13.20
2023-03-29T06:28:16.619Z,10.50
2023-03-29T06:30:47.137Z,13.35
2023-03-29T06:33:17.320Z,13.25
2023-03-29T06:35:58.048Z,12.82
2023-03-29T06:38:30.978Z,9.57
2023-03-29T06:41:21.585Z,9.10
2023-03-29T06:44:08.937Z,16.25
2023-03-29T06:46:45.811Z,14.63
2023-03-29T06:49:16.846Z,16.40
2023-03-29T06:52:02.197Z,10.77
2023-03-29T06:54:31.353Z,10.40
2023-03-29T06:57:05.883Z,18.08
2023-03-29T06:59:35.837Z,9.57
2023-03-29T07:02:31.928Z,8.88
2023-03-29T07:05:14.487Z,11.52
2023-03-29T07:07:56.602Z,16.05
2023-03-29T07:10:39.569Z,10.48
2023-03-29T07:13:36.141Z,18.38
2023-03-29T07:16:12.484Z,13.77
2023-03-29T07:18:50.113Z,18.10
2023-03-29T07:21:37.945Z,13.68
2023-03-29T07:24:08.760Z,15.13
2023-03-29T07:26:38.210Z,14.80
2023-03-29T07:29:09.377Z,10.88
2023-03-29T07:31:40.970Z,14.27
2023-03-29T07:34:37.009Z,17.10
2023-03-29T07:37:09.390Z,13.40
2023-03-29T07:39:40.427Z,12.27
2023-03-29T07:42:36.646Z,15.18
2023-03-29T07:45:09.467Z,19.92
2023-03-29T07:47:50.223Z,15.30
2023-03-29T07:50:21.740Z,24.98
2023-03-29T07:52:51.194Z,18.75
2023-03-29T07:55:20.751Z,18.95
2023-03-29T07:57:59.197Z,17.63
2023-03-29T08:00:29.862Z,15.73
2023-03-29T08:03:18.719Z,17.17
2023-03-29T08:05:47.708Z,16.92
2023-03-29T08:08:18.085Z,17.65
2023-03-29T08:10:54.350Z,17.95
2023-03-29T08:13:37.455Z,15.40
2023-03-29T08:16:43.594Z,22.60
2023-03-29T08:19:16.698Z,16.83
2023-03-29T08:22:03.941Z,21.00
2023-03-29T08:24:50.803Z,14.73
2023-03-29T08:27:21.400Z,17.98
2023-03-29T08:29:50.429Z,18.98
2023-03-29T08:32:20.969Z,22.40
2023-03-29T08:34:50.829Z,20.20
2023-03-29T08:37:25.988Z,19.75
2023-03-29T08:39:57.622Z,20.08
2023-03-29T08:43:13.824Z,22.58
2023-03-29T08:46:23.533Z,22.25
2023-03-29T08:48:57.918Z,23.17
2023-03-29T08:51:33.869Z,21.17
2023-03-29T08:54:07.376Z,25.20
2023-03-29T08:59:34.920Z,18.20
2023-03-29T09:02:17.897Z,22.48
2023-03-29T09:04:53.818Z,23.77
2023-03-29T09:07:33.886Z,27.20
2023-03-29T09:10:03.580Z,24.00
2023-03-29T09:12:52.759Z,34.58
2023-03-29T09:18:12.799Z,33.15
2023-03-29T09:20:52.029Z,32.63
2023-03-29T09:23:58.241Z,30.95
2023-03-29T09:26:41.003Z,29.60
2023-03-29T09:29:42.174Z,32.75
2023-03-29T09:32:20.812Z,34.45
2023-03-29T09:35:04.679Z,32.83
2023-03-29T09:37:38.578Z,34.45
2023-03-29T09:40:14.730Z,36.72
2023-03-29T09:42:55.793Z,26.42
2023-03-29T09:45:24.994Z,32.65
2023-03-29T09:47:59.212Z,31.65
2023-03-29T09:50:35.996Z,29.67
2023-03-29T09:53:09.845Z,29.42
2023-03-29T09:55:44.872Z,32.10
2023-03-29T09:58:34.486Z,32.25
2023-03-29T10:01:10.467Z,31.40
2023-03-29T10:03:41.665Z,28.35
2023-03-29T10:06:18.641Z,27.58
2023-03-29T10:08:57.963Z,24.45
2023-03-29T10:14:20.691Z,24.75
2023-03-29T10:16:56.966Z,31.45
2023-03-29T10:19:30.432Z,26.35
2023-03-29T10:22:01.645Z,21.42
2023-03-29T10:24:32.478Z,23.85
2023-03-29T10:27:03.796Z,27.83
2023-03-29T10:29:38.200Z,21.35
2023-03-29T10:32:15.845Z,24.75
2023-03-29T10:34:46.906Z,27.02
2023-03-29T10:37:19.311Z,21.95
2023-03-29T10:39:50.291Z,30.10
2023-03-29T10:42:24.433Z,26.42
2023-03-29T10:44:55.462Z,26.58
2023-03-29T10:47:25.062Z,22.02
2023-03-29T10:49:56.994Z,27.85
2023-03-29T10:52:26.888Z,19.23
2023-03-29T10:54:59.291Z,21.95
2023-03-29T10:57:34.936Z,18.25
2023-03-29T11:00:12.518Z,20.60
2023-03-29T11:03:07.360Z,19.15
2023-03-29T11:05:44.125Z,14.25
2023-03-29T11:08:33.580Z,14.18
2023-03-29T11:11:21.944Z,14.35
2023-03-29T11:14:00.041Z,12.27
2023-03-29T11:16:35.556Z,21.95
2023-03-29T11:19:26.027Z,20.80
2023-03-29T11:22:01.387Z,18.92
2023-03-29T11:24:47.742Z,20.73
2023-03-29T11:27:30.195Z,18.95
2023-03-29T11:30:08.361Z,19.27
2023-03-29T11:32:48.543Z,21.33
2023-03-29T11:35:49.386Z,17.63
2023-03-29T11:38:29.226Z,19.17
2023-03-29T11:41:09.415Z,19.73
2023-03-29T11:43:44.207Z,21.92
2023-03-29T11:46:17.039Z,19.15
2023-03-29T11:48:51.978Z,18.65
2023-03-29T11:51:27.216Z,18.05
2023-03-29T11:54:02.909Z,20.73
2023-03-29T11:56:37.918Z,21.75
2023-03-29T11:59:16.108Z,18.65
2023-03-29T12:01:50.812Z,19.95
2023-03-29T12:04:26.271Z,17.38
2023-03-29T12:07:03.212Z,23.77
2023-03-29T12:09:36.629Z,19.65
2023-03-29T12:12:11.834Z,18.65
2023-03-29T12:14:56.227Z,26.42
2023-03-29T12:17:31.927Z,24.35
2023-03-29T12:20:08.665Z,24.60
2023-03-29T12:22:49.078Z,24.67
2023-03-29T12:25:24.826Z,23.05
2023-03-29T12:28:06.842Z,24.50
2023-03-29T12:31:05.539Z,24.42
2023-03-29T12:34:07.002Z,23.75
2023-03-29T12:37:32.250Z,19.13
2023-03-29T12:40:42.989Z,22.30
2023-03-29T12:43:34.171Z,22.58
2023-03-29T12:46:26.976Z,17.45
2023-03-29T12:49:05.924Z,23.30
2023-03-29T12:51:40.934Z,27.70
2023-03-29T12:54:15.932Z,23.08
2023-03-29T12:56:58.431Z,26.75
2023-03-29T12:59:37.207Z,25.60
2023-03-29T13:05:27.718Z,22.75
2023-03-29T13:07:56.999Z,29.23
2023-03-29T13:10:40.777Z,20.95
2023-03-29T13:13:15.697Z,25.65
2023-03-29T13:15:46.106Z,19.73
2023-03-29T13:18:34.107Z,19.00
2023-03-29T13:21:15.519Z,17.38
2023-03-29T13:23:53.091Z,16.77
2023-03-29T13:26:35.163Z,16.88
2023-03-29T13:29:39.955Z,19.33
2023-03-29T13:32:27.948Z,20.27
2023-03-29T13:35:05.159Z,19.05
2023-03-29T13:37:47.423Z,21.65
2023-03-29T13:40:43.700Z,21.38
2023-03-29T13:43:22.456Z,20.35
2023-03-29T13:46:07.834Z,22.80
2023-03-29T13:48:52.809Z,16.83
2023-03-29T13:51:28.443Z,19.98
2023-03-29T13:54:08.379Z,24.50
2023-03-29T13:56:44.712Z,20.95
2023-03-29T13:59:20.038Z,18.42
2023-03-29T14:01:54.630Z,17.05
2023-03-29T14:04:29.423Z,18.80
2023-03-29T14:06:59.389Z,16.67
2023-03-29T14:09:34.080Z,19.50
2023-03-29T14:12:03.178Z,18.27
2023-03-29T14:14:33.975Z,17.55
2023-03-29T14:17:04.124Z,20.50
2023-03-29T14:19:37.722Z,21.60
2023-03-29T14:22:10.880Z,18.40
2023-03-29T14:24:48.148Z,16.88
2023-03-29T14:27:17.769Z,18.98
2023-03-29T14:29:48.180Z,15.43
2023-03-29T14:32:18.973Z,17.45
2023-03-29T14:34:51.706Z,19.55
2023-03-29T14:37:24.139Z,18.95
2023-03-29T14:39:55.054Z,18.42
2023-03-29T14:42:27.995Z,23.08
2023-03-29T14:44:59.809Z,12.15
2023-03-29T14:47:31.613Z,16.40
2023-03-29T14:50:01.831Z,13.65
2023-03-29T14:52:32.549Z,21.75
2023-03-29T14:55:04.203Z,19.98
2023-03-29T14:57:36.739Z,14.77
2023-03-29T15:00:22.418Z,19.20
2023-03-29T15:02:55.251Z,14.07
2023-03-29T15:05:29.791Z,14.15
2023-03-29T15:07:58.780Z,17.20
2023-03-29T15:10:32.735Z,13.63
2023-03-29T15:13:04.111Z,15.45
2023-03-29T15:15:35.734Z,15.10
2023-03-29T15:18:09.140Z,14.32
2023-03-29T15:20:40.226Z,17.80
2023-03-29T15:23:23.878Z,15.57
2023-03-29T15:25:57.226Z,12.20
2023-03-29T15:33:37.239Z,15.48
2023-03-29T15:36:08.377Z,13.75
2023-03-29T15:38:43.829Z,14.93
2023-03-29T15:41:15.477Z,17.67
2023-03-29T15:43:44.520Z,17.92
2023-03-29T15:46:14.544Z,17.52
2023-03-29T15:48:43.933Z,14.32
2023-03-29T15:51:13.360Z,14.32
2023-03-29T15:53:42.755Z,15.82
2023-03-29T15:56:19.430Z,19.40
2023-03-29T15:58:48.872Z,13.10
2023-03-29T16:01:33.856Z,14.70
2023-03-29T16:04:03.860Z,14.35
2023-03-29T16:06:33.534Z,13.32
2023-03-29T16:09:02.638Z,14.38
2023-03-29T16:11:32.799Z,12.55
2023-03-29T16:14:03.878Z,12.35
2023-03-29T16:16:32.856Z,15.93
2023-03-29T16:19:03.743Z,10.55
2023-03-29T16:21:32.520Z,18.00
2023-03-29T16:24:01.757Z,14.57
2023-03-29T16:26:34.578Z,14.40
2023-03-29T16:29:05.722Z,12.57
2023-03-29T16:31:34.526Z,11.30
2023-03-29T16:34:03.509Z,17.58
2023-03-29T16:36:33.888Z,11.65
2023-03-29T16:39:03.218Z,13.85
2023-03-29T16:41:32.515Z,15.35
2023-03-29T16:44:05.418Z,13.90
2023-03-29T16:46:34.803Z,16.23
2023-03-29T16:49:04.333Z,22.23
2023-03-29T16:51:33.107Z,17.02
2023-03-29T16:54:04.151Z,9.93
2023-03-29T16:56:32.879Z,9.68
2023-03-29T16:59:01.605Z,10.63
2023-03-29T17:01:32.355Z,9.18
2023-03-29T17:06:33.016Z,12.13
2023-03-29T17:09:02.109Z,7.10
2023-03-29T17:11:33.165Z,9.10
2023-03-29T17:14:04.317Z,9.55
2023-03-29T17:16:34.499Z,16.25
2023-03-29T17:19:03.345Z,7.22
2023-03-29T17:21:32.036Z,10.65
2023-03-29T17:24:00.973Z,8.38
2023-03-29T17:26:29.881Z,5.65
2023-03-29T17:28:58.597Z,7.53
2023-03-29T17:31:27.767Z,6.20
2023-03-29T17:33:58.160Z,8.07
2023-03-29T17:36:28.935Z,9.93
2023-03-29T17:41:30.444Z,9.02
2023-03-29T17:43:59.865Z,7.57
2023-03-29T17:46:28.705Z,8.05
2023-03-29T17:48:59.251Z,6.63
2023-03-29T17:51:28.862Z,6.72
2023-03-29T17:53:58.317Z,9.27
2023-03-29T17:56:27.481Z,6.70
2023-03-29T17:59:01.039Z,12.15
2023-03-29T18:01:32.876Z,6.07
2023-03-29T18:04:08.041Z,7.47
2023-03-29T18:06:37.155Z,7.20
2023-03-29T18:09:06.155Z,6.88
2023-03-29T18:11:36.464Z,10.93
2023-03-29T18:14:06.100Z,9.40
2023-03-29T18:16:34.995Z,7.82
2023-03-29T18:19:07.382Z,10.13
2023-03-29T18:21:37.016Z,6.90
2023-03-29T18:24:05.902Z,8.57
2023-03-29T18:26:34.710Z,7.47
2023-03-29T18:29:03.454Z,13.05
2023-03-29T18:31:32.345Z,8.25
2023-03-29T18:34:01.520Z,9.88
2023-03-29T18:36:32.374Z,8.95
2023-03-29T18:39:05.714Z,12.70
2023-03-29T18:41:35.723Z,7.63
2023-03-29T18:44:05.168Z,9.98
2023-03-29T18:46:34.295Z,8.90
2023-03-29T18:49:04.095Z,11.93
2023-03-29T18:51:34.821Z,13.05
2023-03-29T18:54:04.355Z,20.13
2023-03-29T18:56:33.062Z,16.25
2023-03-29T18:59:05.169Z,10.25
2023-03-29T19:01:34.704Z,10.35
2023-03-29T19:04:03.856Z,10.68
2023-03-29T19:06:34.138Z,10.95
2023-03-29T19:09:05.299Z,13.57
2023-03-29T19:11:36.125Z,13.85
2023-03-29T19:14:08.528Z,13.27
2023-03-29T19:16:38.206Z,11.07
2023-03-29T19:19:08.534Z,17.17
2023-03-29T19:21:39.429Z,10.10
2023-03-29T19:24:09.624Z,13.77
2023-03-29T19:26:39.109Z,10.82
2023-03-29T19:29:08.745Z,11.48
2023-03-29T19:31:39.620Z,9.30
2023-03-29T19:34:11.040Z,13.00
2023-03-29T19:36:41.898Z,15.55
2023-03-29T19:39:10.690Z,12.95
2023-03-29T19:41:41.392Z,12.98
2023-03-29T19:44:10.675Z,12.50
2023-03-29T19:46:39.501Z,11.65
2023-03-29T19:49:13.693Z,13.43
2023-03-29T19:51:46.359Z,12.05
2023-03-29T19:54:17.340Z,9.35
2023-03-29T19:59:22.772Z,12.85
2023-03-29T20:01:51.876Z,15.02
2023-03-29T20:04:22.757Z,12.45
2023-03-29T20:06:53.049Z,14.32
2023-03-29T20:09:21.836Z,14.65
2023-03-29T20:11:50.649Z,9.75
2023-03-29T20:14:19.405Z,15.45
2023-03-29T20:16:49.930Z,13.75
2023-03-29T20:19:23.750Z,14.85
2023-03-29T20:21:57.507Z,13.45
2023-03-29T20:24:28.940Z,12.85
2023-03-29T20:26:57.729Z,13.70
2023-03-29T20:29:29.765Z,11.00
2023-03-29T20:31:59.304Z,13.13
2023-03-29T20:34:28.399Z,13.82
2023-03-29T20:37:00.997Z,15.35
2023-03-29T20:39:31.415Z,12.73
2023-03-29T20:42:00.567Z,13.05
2023-03-29T20:44:29.541Z,12.18
2023-03-29T20:47:06.324Z,12.38
2023-03-29T20:49:38.160Z,14.93
2023-03-29T20:52:15.443Z,13.05
2023-03-29T20:54:44.935Z,14.38
2023-03-29T20:57:16.074Z,17.85
2023-03-29T20:59:46.138Z,13.00
2023-03-29T21:02:17.391Z,12.75
2023-03-29T21:04:51.994Z,14.27
2023-03-29T21:07:23.040Z,17.00
2023-03-29T21:09:52.677Z,14.05
2023-03-29T21:12:23.732Z,10.70
2023-03-29T21:14:53.197Z,11.43
2023-03-29T21:17:22.216Z,12.57
2023-03-29T21:19:52.229Z,12.07
2023-03-29T21:22:23.454Z,11.93
2023-03-29T21:24:53.072Z,14.90
2023-03-29T21:27:22.467Z,14.30
2023-03-29T21:29:52.080Z,8.48
2023-03-29T21:32:22.171Z,9.20
2023-03-29T21:34:51.984Z,15.25
2023-03-29T21:37:23.556Z,11.07
2023-03-29T21:39:53.491Z,11.65
2023-03-29T21:42:23.198Z,10.73
2023-03-29T21:44:52.751Z,14.52
2023-03-29T21:47:24.035Z,15.10
2023-03-29T21:49:53.472Z,12.23
2023-03-29T21:52:24.085Z,12.63
2023-03-29T21:54:53.969Z,10.82
2023-03-29T21:57:23.143Z,10.65
2023-03-29T21:59:52.697Z,8.52
2023-03-29T22:02:25.043Z,15.85
2023-03-29T22:04:54.706Z,14.52
2023-03-29T22:07:25.985Z,11.95
2023-03-29T22:09:59.106Z,13.10
2023-03-29T22:12:28.622Z,14.38
2023-03-29T22:15:00.868Z,8.95
2023-03-29T22:17:30.365Z,12.18
2023-03-29T22:19:59.516Z,15.82
2023-03-29T22:22:31.140Z,15.88
2023-03-29T22:25:00.634Z,10.32
2023-03-29T22:27:30.204Z,15.20
2023-03-29T22:30:00.094Z,13.73
2023-03-29T22:32:32.621Z,10.80
2023-03-29T22:35:01.988Z,12.13
2023-03-29T22:37:33.270Z,10.82
2023-03-29T22:40:02.683Z,14.77
2023-03-29T22:42:32.449Z,8.35
2023-03-29T22:45:01.846Z,10.43
2023-03-29T22:47:31.487Z,12.02
2023-03-29T22:50:01.331Z,12.57
2023-03-29T22:52:30.287Z,10.52
2023-03-29T22:55:00.969Z,9.52
2023-03-29T22:57:30.303Z,10.77
2023-03-29T22:59:59.633Z,9.10
2023-03-29T23:02:29.823Z,13.50
2023-03-29T23:04:59.083Z,11.18
2023-03-29T23:07:29.999Z,12.13
2023-03-29T23:10:01.582Z,11.68
2023-03-29T23:12:31.873Z,9.48
2023-03-29T23:15:01.595Z,11.43
2023-03-29T23:17:33.201Z,10.18
2023-03-29T23:20:06.206Z,11.63
2023-03-29T23:22:36.733Z,10.98
2023-03-29T23:25:08.590Z,8.73
2023-03-29T23:27:38.273Z,9.85
2023-03-29T23:30:10.011Z,11.90
2023-03-29T23:32:40.195Z,8.15
2023-03-29T23:35:10.450Z,12.50
2023-03-29T23:37:39.763Z,11.32
2023-03-29T23:40:14.093Z,5.68
2023-03-29T23:42:45.311Z,7.35
2023-03-29T23:45:18.480Z,7.47
2023-03-29T23:47:48.474Z,5.53
2023-03-29T23:50:18.543Z,11.30
2023-03-29T23:52:49.753Z,6.85
2023-03-29T23:55:21.044Z,6.55
2023-03-29T23:57:50.668Z,5.13
